Time;durP1;ratioP1;P1;durP2;ratioP2;P2;SDS_P1;SDS_P2;PMS_P1;PMS_P2;Temp;Humidity;BMP_temperature;BMP_pressure;BME280_temperature;BME280_humidity;BME280_pressure;Samples;Min_cycle;Max_cycle;Signal;HPM_P1;HPM_P2
2023/03/01 00:00:25;;;;;;;11.10;6.15;;;1.90;98.70;;;;;;4145182;28;20050;-84
2023/03/01 00:02:26;;;;;;;12.95;7.70;;;2.60;98.80;;;;;;4172240;28;20042;-84
2023/03/01 00:04:27;;;;;;;12.43;7.15;;;1.40;98.70;;;;;;4174357;28;20060;-83
2023/03/01 00:06:30;;;;;;;11.30;7.38;;;1.40;98.90;;;;;;4200217;28;20348;-83
2023/03/01 00:08:32;;;;;;;16.42;7.55;;;1.40;98.90;;;;;;4185703;28;20034;-84
2023/03/01 00:10:34;;;;;;;15.95;7.60;;;1.40;99.10;;;;;;4182666;28;20071;-84
2023/03/01 00:12:36;;;;;;;14.55;7.07;;;2.90;99.70;;;;;;4157928;28;20053;-84
2023/03/01 00:14:38;;;;;;;14.07;7.03;;;2.80;99.40;;;;;;4185110;28;20095;-84
2023/03/01 00:16:41;;;;;;;13.45;7.18;;;1.30;99.10;;;;;;4146486;28;20053;-84
2023/03/01 00:18:42;;;;;;;14.02;6.72;;;2.10;99.20;;;;;;4174087;28;20056;-84
2023/03/01 00:20:50;;;;;;;12.50;6.88;;;2.10;99.30;;;;;;4173519;28;20113;-84
2023/03/01 00:22:52;;;;;;;12.45;5.82;;;1.70;98.90;;;;;;4190472;28;20401;-84
2023/03/01 00:24:52;;;;;;;11.98;5.82;;;1.80;99.10;;;;;;4136454;28;20510;-84
2023/03/01 00:26:55;;;;;;;12.20;6.68;;;2.00;99.20;;;;;;4181003;28;20040;-84
2023/03/01 00:28:58;;;;;;;12.27;6.35;;;1.20;98.90;;;;;;4152885;28;20053;-84
2023/03/01 00:31:07;;;;;;;11.45;5.82;;;1.10;99.30;;;;;;4169485;28;20516;-84
2023/03/01 00:33:09;;;;;;;14.52;6.47;;;1.10;99.30;;;;;;4151249;28;20081;-83
2023/03/01 00:35:10;;;;;;;10.80;6.47;;;1.10;99.70;;;;;;4133922;28;20058;-84
2023/03/01 00:37:12;;;;;;;11.77;6.10;;;1.40;99.70;;;;;;4183932;28;20074;-84
2023/03/01 00:39:15;;;;;;;11.90;6.43;;;0.50;99.60;;;;;;4156996;28;20053;-84
2023/03/01 00:41:18;;;;;;;14.80;7.20;;;1.60;99.50;;;;;;4168150;28;20057;-84
2023/03/01 00:43:20;;;;;;;15.85;7.82;;;0.90;99.50;;;;;;4165435;28;20049;-84
2023/03/01 00:45:22;;;;;;;13.55;6.57;;;1.70;99.90;;;;;;4136505;28;20371;-84
2023/03/01 00:47:25;;;;;;;12.38;6.65;;;0.90;99.60;;;;;;4135377;28;20541;-84
2023/03/01 00:49:27;;;;;;;12.82;5.15;;;0.90;99.70;;;;;;4181613;28;20041;-84
2023/03/01 00:51:29;;;;;;;11.65;6.85;;;0.90;99.70;;;;;;4135584;28;20061;-84
2023/03/01 00:53:30;;;;;;;7.03;4.18;;;1.00;99.60;;;;;;4181528;28;20051;-84
2023/03/01 00:55:31;;;;;;;8.27;4.20;;;0.80;99.80;;;;;;4169949;28;20037;-84
2023/03/01 00:57:33;;;;;;;11.20;4.53;;;1.00;99.90;;;;;;4183165;28;20041;-84
2023/03/01 00:59:34;;;;;;;5.20;3.05;;;0.70;99.90;;;;;;4183371;28;20405;-84
2023/03/01 01:01:35;;;;;;;10.27;3.70;;;0.60;99.90;;;;;;4146591;28;20125;-84
2023/03/01 01:03:37;;;;;;;7.35;3.90;;;1.80;99.90;;;;;;4137131;28;20104;-84
2023/03/01 01:05:38;;;;;;;5.50;3.53;;;1.30;99.90;;;;;;4162925;28;20533;-84
2023/03/01 01:07:38;;;;;;;6.50;3.67;;;-0.40;99.80;;;;;;4136422;28;20054;-84
2023/03/01 01:09:40;;;;;;;7.03;4.40;;;1.40;99.90;;;;;;4179802;28;20136;-84
2023/03/01 01:11:43;;;;;;;9.10;4.15;;;1.10;99.90;;;;;;4170861;28;20393;-84
2023/03/01 01:13:46;;;;;;;8.10;4.50;;;1.60;99.90;;;;;;4150021;28;20053;-83
2023/03/01 01:15:47;;;;;;;6.07;3.80;;;0.70;99.90;;;;;;4149505;28;20290;-84
2023/03/01 01:17:49;;;;;;;6.55;4.10;;;1.60;99.90;;;;;;4183492;28;20546;-84
2023/03/01 01:19:50;;;;;;;7.97;4.78;;;0.20;99.90;;;;;;4178249;28;20044;-84
2023/03/01 01:21:52;;;;;;;8.30;4.70;;;1.70;99.90;;;;;;4138642;28;20034;-84
2023/03/01 01:23:53;;;;;;;8.45;5.00;;;0.40;99.90;;;;;;4166099;28;20719;-84
2023/03/01 01:25:54;;;;;;;8.40;5.15;;;0.80;99.90;;;;;;4164625;28;20069;-84
2023/03/01 01:27:56;;;;;;;8.88;5.05;;;1.70;99.90;;;;;;4166087;28;20046;-84
2023/03/01 01:29:57;;;;;;;8.02;5.07;;;1.30;99.90;;;;;;4166875;28;20501;-84
2023/03/01 01:31:59;;;;;;;9.80;5.18;;;0.40;99.90;;;;;;4166896;28;20052;-84
2023/03/01 01:34:07;;;;;;;9.73;5.75;;;0.40;99.90;;;;;;4160260;28;20046;-84
2023/03/01 01:36:09;;;;;;;12.25;4.80;;;-0.70;99.90;;;;;;4158234;28;20042;-84
2023/03/01 01:38:12;;;;;;;12.88;5.22;;;0.10;99.90;;;;;;4159212;28;20125;-84
2023/03/01 01:40:13;;;;;;;14.40;5.80;;;0.20;99.90;;;;;;4151529;28;20095;-84
2023/03/01 01:42:20;;;;;;;47.03;7.13;;;0.40;99.90;;;;;;4158085;28;20469;-84
2023/03/01 01:44:26;;;;;;;24.90;6.68;;;0.50;99.90;;;;;;4167720;28;20092;-84
2023/03/01 01:46:35;;;;;;;33.67;6.85;;;0.10;99.90;;;;;;4157127;28;20056;-84
2023/03/01 01:48:46;;;;;;;15.85;6.22;;;1.40;99.90;;;;;;4145026;28;20117;-84
2023/03/01 01:50:59;;;;;;;10.40;5.05;;;0.90;99.90;;;;;;4153210;28;20054;-84
2023/03/01 01:52:59;;;;;;;12.90;6.13;;;-0.70;99.90;;;;;;4151212;28;20069;-84
2023/03/01 01:55:03;;;;;;;17.70;5.70;;;0.00;99.90;;;;;;4147770;28;20092;-84
2023/03/01 01:57:11;;;;;;;14.88;5.82;;;0.10;99.90;;;;;;4165139;28;20072;-84
2023/03/01 01:59:12;;;;;;;17.02;6.22;;;0.00;99.90;;;;;;4151227;28;20512;-84
2023/03/01 02:01:13;;;;;;;13.43;5.93;;;0.00;99.90;;;;;;4164351;28;20038;-84
2023/03/01 02:03:22;;;;;;;11.68;4.90;;;0.00;99.90;;;;;;4167050;28;20077;-84
2023/03/01 02:05:26;;;;;;;12.02;5.82;;;0.00;99.90;;;;;;4165900;28;20049;-84
2023/03/01 02:07:28;;;;;;;12.18;5.50;;;0.00;99.90;;;;;;4154576;28;20041;-84
2023/03/01 02:09:32;;;;;;;10.82;5.68;;;-0.10;99.90;;;;;;4168133;28;20508;-84
2023/03/01 02:11:34;;;;;;;11.00;5.47;;;0.10;99.90;;;;;;4139279;28;20068;-84
2023/03/01 02:13:35;;;;;;;13.48;5.90;;;0.60;99.90;;;;;;4152250;28;20084;-84
2023/03/01 02:15:38;;;;;;;17.42;5.57;;;-0.20;99.90;;;;;;4169625;28;20060;-84
2023/03/01 02:17:39;;;;;;;19.92;5.25;;;-0.20;99.90;;;;;;4148671;28;20046;-84
2023/03/01 02:19:48;;;;;;;61.38;5.90;;;-0.60;99.90;;;;;;4157810;28;20048;-84
2023/03/01 02:22:16;;;;;;;46.97;5.13;;;-0.40;99.90;;;;;;4150973;28;20057;-84
2023/03/01 02:24:26;;;;;;;27.27;5.75;;;-0.40;99.90;;;;;;4171534;28;20116;-84
2023/03/01 02:26:32;;;;;;;36.15;4.70;;;1.00;99.90;;;;;;4162457;28;20145;-84
2023/03/01 02:28:37;;;;;;;18.55;4.30;;;-0.60;99.90;;;;;;4148255;28;20049;-84
2023/03/01 02:31:41;;;;;;;8.75;4.22;;;-0.60;99.90;;;;;;4141661;28;20046;-84
2023/03/01 02:33:04;;;;;;;9.57;4.60;;;0.90;99.90;;;;;;4168346;28;20104;-84
2023/03/01 02:35:06;;;;;;;7.50;3.65;;;-0.60;99.90;;;;;;4155113;28;20409;-84
2023/03/01 02:37:14;;;;;;;7.57;4.20;;;-0.70;99.90;;;;;;4152879;28;20050;-84
2023/03/01 02:39:21;;;;;;;7.47;4.25;;;0.40;99.90;;;;;;4170443;28;20121;-84
2023/03/01 02:41:26;;;;;;;9.30;4.55;;;-0.20;99.90;;;;;;4170680;28;20481;-84
2023/03/01 02:43:30;;;;;;;8.52;4.10;;;0.50;99.90;;;;;;4167742;28;20441;-83
2023/03/01 02:45:32;;;;;;;7.82;4.32;;;0.60;99.90;;;;;;4153845;28;20057;-83
2023/03/01 02:47:35;;;;;;;6.93;4.28;;;-0.70;99.90;;;;;;4155959;28;20033;-83
2023/03/01 02:49:37;;;;;;;6.97;3.80;;;0.80;99.90;;;;;;4150472;28;20545;-83
2023/03/01 02:52:02;;;;;;;7.20;3.58;;;-0.70;99.90;;;;;;4156401;28;20042;-83
2023/03/01 02:54:28;;;;;;;6.70;3.72;;;-0.80;99.90;;;;;;4160113;28;20541;-83
2023/03/01 02:56:30;;;;;;;6.38;3.70;;;-1.40;99.90;;;;;;4160275;28;20092;-83
2023/03/01 02:58:30;;;;;;;6.40;3.53;;;-0.30;99.90;;;;;;4147441;28;20050;-83
2023/03/01 03:00:39;;;;;;;7.10;3.88;;;-0.80;99.90;;;;;;4170527;28;20041;-84
2023/03/01 03:02:41;;;;;;;8.32;4.38;;;-0.50;99.90;;;;;;4141977;28;20046;-83
2023/03/01 03:04:42;;;;;;;7.43;3.90;;;0.60;99.90;;;;;;4167311;28;20037;-85
2023/03/01 03:06:45;;;;;;;6.15;4.07;;;0.40;99.90;;;;;;4141862;28;20073;-84
2023/03/01 03:08:47;;;;;;;7.38;3.70;;;0.10;99.90;;;;;;4167427;28;20049;-84
2023/03/01 03:10:50;;;;;;;6.13;3.83;;;-0.20;99.90;;;;;;4151707;28;20104;-85
2023/03/01 03:12:55;;;;;;;7.55;4.38;;;-0.90;99.90;;;;;;4169592;28;20092;-84
2023/03/01 03:14:56;;;;;;;11.13;5.80;;;-0.40;99.90;;;;;;4160352;28;20132;-84
2023/03/01 03:16:57;;;;;;;13.02;6.13;;;-0.80;99.90;;;;;;4169910;28;20591;-84
2023/03/01 03:19:04;;;;;;;12.00;5.57;;;0.50;99.90;;;;;;4157076;28;20052;-83
2023/03/01 03:21:12;;;;;;;9.48;5.25;;;-0.50;99.90;;;;;;4161696;28;20128;-83
2023/03/01 03:23:15;;;;;;;10.70;5.57;;;0.50;99.90;;;;;;4170564;28;20433;-82
2023/03/01 03:25:17;;;;;;;11.40;5.63;;;0.70;99.90;;;;;;4163052;28;20061;-83
2023/03/01 03:27:24;;;;;;;9.80;4.90;;;-0.90;99.90;;;;;;4187229;28;20057;-83
2023/03/01 03:29:25;;;;;;;6.40;3.83;;;-0.90;99.90;;;;;;4187954;28;20170;-82
2023/03/01 03:31:28;;;;;;;8.30;4.35;;;0.10;99.90;;;;;;4153212;28;20410;-83
2023/03/01 03:33:31;;;;;;;6.80;3.58;;;0.30;99.90;;;;;;4151622;28;20046;-82
2023/03/01 03:35:38;;;;;;;6.70;3.80;;;-1.00;99.90;;;;;;4173642;28;20492;-83
2023/03/01 03:40:03;;;;;;;7.78;3.55;;;-1.90;99.90;;;;;;4180717;28;20041;-83
2023/03/01 03:42:04;;;;;;;5.75;3.28;;;-1.00;99.90;;;;;;4160595;28;20071;-83
2023/03/01 03:44:06;;;;;;;6.00;3.55;;;-1.00;99.90;;;;;;4153255;28;20046;-83
2023/03/01 03:46:07;;;;;;;7.20;4.30;;;-0.70;99.90;;;;;;4153608;28;20530;-83
2023/03/01 03:48:10;;;;;;;7.18;4.15;;;-1.00;99.90;;;;;;4161876;28;20074;-84
2023/03/01 03:50:15;;;;;;;8.30;4.00;;;-0.40;99.90;;;;;;4146193;28;20118;-83
2023/03/01 03:52:16;;;;;;;6.30;3.70;;;-1.10;99.90;;;;;;4189100;28;20045;-83
2023/03/01 03:54:20;;;;;;;7.35;4.20;;;0.10;99.90;;;;;;4144979;28;20086;-83
2023/03/01 03:56:25;;;;;;;6.20;3.97;;;0.40;99.90;;;;;;4180534;28;20481;-83
2023/03/01 03:58:27;;;;;;;5.20;3.58;;;0.40;99.90;;;;;;4163037;28;20061;-84
2023/03/01 04:00:29;;;;;;;5.75;3.88;;;0.40;99.90;;;;;;4169952;28;20539;-83
2023/03/01 04:02:31;;;;;;;5.03;3.70;;;-0.90;99.90;;;;;;4161231;28;20125;-84
2023/03/01 04:04:33;;;;;;;8.38;4.47;;;-0.70;99.90;;;;;;4176350;28;20049;-84
2023/03/01 04:06:35;;;;;;;8.40;4.43;;;-0.40;99.90;;;;;;4137091;28;20050;-84
2023/03/01 04:08:36;;;;;;;9.20;4.45;;;-1.40;99.90;;;;;;4171728;28;20045;-85
2023/03/01 04:10:41;;;;;;;9.88;4.38;;;-1.60;99.90;;;;;;4172437;28;20045;-84
2023/03/01 04:12:43;;;;;;;8.68;4.32;;;-1.40;99.90;;;;;;4184866;28;20040;-84
2023/03/01 04:14:43;;;;;;;14.80;4.43;;;-0.50;99.90;;;;;;4178413;28;20120;-84
2023/03/01 04:16:45;;;;;;;44.50;5.32;;;-1.70;99.90;;;;;;4155198;28;20037;-84
2023/03/01 04:18:50;;;;;;;14.00;3.97;;;-1.60;99.90;;;;;;4158149;28;20097;-84
2023/03/01 04:20:55;;;;;;;20.98;4.57;;;-2.70;99.90;;;;;;4152309;28;20064;-84
2023/03/01 04:23:12;;;;;;;46.22;4.85;;;-0.40;99.90;;;;;;4154498;28;20537;-84
2023/03/01 04:25:14;;;;;;;41.90;4.97;;;-0.70;99.90;;;;;;4154587;28;20061;-84
2023/03/01 04:27:21;;;;;;;89.15;7.15;;;-1.90;99.90;;;;;;4170366;28;20057;-84
2023/03/01 04:29:27;;;;;;;135.35;8.45;;;-0.40;99.90;;;;;;4156972;28;20129;-84
2023/03/01 04:31:29;;;;;;;41.38;5.78;;;-1.80;99.90;;;;;;4154016;28;20049;-84
2023/03/01 04:33:31;;;;;;;43.22;5.00;;;-1.70;99.90;;;;;;4171425;28;20042;-84
2023/03/01 04:35:36;;;;;;;76.75;6.38;;;-1.20;99.90;;;;;;4171081;28;20512;-83
2023/03/01 04:37:37;;;;;;;120.85;8.50;;;-0.90;99.90;;;;;;4167808;28;20498;-84
2023/03/01 04:39:45;;;;;;;76.28;6.35;;;-1.90;99.90;;;;;;4139513;28;20041;-84
2023/03/01 04:41:48;;;;;;;29.77;5.65;;;-1.90;99.90;;;;;;4153142;28;20042;-84
2023/03/01 04:43:49;;;;;;;87.70;7.25;;;-1.80;99.90;;;;;;4169069;28;20116;-84
2023/03/01 04:46:05;;;;;;;32.40;5.88;;;-1.90;99.90;;;;;;4146199;28;20043;-84
2023/03/01 04:48:06;;;;;;;56.33;5.93;;;-2.70;99.90;;;;;;4153480;28;20052;-83
2023/03/01 04:50:10;;;;;;;71.47;6.32;;;-1.80;99.90;;;;;;4144961;28;20049;-83
2023/03/01 04:52:12;;;;;;;51.00;5.70;;;-1.80;99.90;;;;;;4153425;28;20100;-83
2023/03/01 04:54:14;;;;;;;64.63;6.45;;;-0.30;99.90;;;;;;4146819;28;20051;-83
2023/03/01 04:56:20;;;;;;;29.15;4.97;;;-1.80;99.90;;;;;;4152594;28;20107;-83
2023/03/01 04:58:23;;;;;;;149.05;9.05;;;-1.20;99.90;;;;;;4176285;28;20501;-83
2023/03/01 05:00:24;;;;;;;126.18;9.45;;;-1.90;99.90;;;;;;4136604;28;20057;-83
2023/03/01 05:02:26;;;;;;;107.05;7.70;;;-0.40;99.90;;;;;;4146902;28;20113;-83
2023/03/01 05:04:28;;;;;;;30.23;6.22;;;-2.10;99.90;;;;;;4169915;28;20100;-83
2023/03/01 05:06:30;;;;;;;97.45;7.40;;;-0.70;99.90;;;;;;4169851;28;20056;-83
2023/03/01 05:08:34;;;;;;;79.00;8.25;;;-1.80;99.90;;;;;;4170966;28;20052;-82
2023/03/01 05:10:38;;;;;;;150.15;9.68;;;-1.90;99.90;;;;;;4149502;28;20061;-82
2023/03/01 05:12:40;;;;;;;113.25;8.35;;;-1.90;99.90;;;;;;4174812;28;20060;-82
2023/03/01 05:14:42;;;;;;;37.75;7.53;;;-1.90;99.90;;;;;;4178907;28;20540;-83
2023/03/01 05:16:43;;;;;;;74.75;7.80;;;-1.90;99.90;;;;;;4174592;28;20041;-84
2023/03/01 05:18:45;;;;;;;31.52;5.85;;;-1.80;99.90;;;;;;4157825;28;20581;-83
2023/03/01 05:20:48;;;;;;;27.02;6.15;;;-1.40;99.90;;;;;;4137672;28;20553;-83
2023/03/01 05:22:56;;;;;;;25.10;6.22;;;-0.50;99.90;;;;;;4167940;28;20065;-83
2023/03/01 05:24:57;;;;;;;11.75;6.15;;;-0.40;99.90;;;;;;4175007;28;20061;-84
2023/03/01 05:27:01;;;;;;;11.55;5.22;;;-0.10;99.90;;;;;;4138308;28;20098;-84
2023/03/01 05:29:04;;;;;;;9.02;5.18;;;-1.80;99.90;;;;;;4185573;28;20052;-83
2023/03/01 05:31:09;;;;;;;11.35;6.53;;;-1.00;99.90;;;;;;4155007;28;20073;-84
2023/03/01 05:33:15;;;;;;;13.60;5.90;;;-1.80;99.90;;;;;;4186888;28;20045;-84
2023/03/01 05:35:17;;;;;;;10.68;5.25;;;-1.70;99.90;;;;;;4169644;28;20046;-85
2023/03/01 05:37:23;;;;;;;10.60;5.43;;;-1.20;99.90;;;;;;4171039;28;20100;-84
2023/03/01 05:39:26;;;;;;;9.95;5.43;;;-0.40;99.90;;;;;;4173630;28;20044;-84
2023/03/01 05:41:28;;;;;;;13.27;5.38;;;-1.70;99.90;;;;;;4159124;28;20063;-84
2023/03/01 05:43:35;;;;;;;10.93;5.63;;;-1.70;99.90;;;;;;4190875;28;20455;-84
2023/03/01 05:45:38;;;;;;;11.05;5.35;;;-0.70;99.90;;;;;;4166263;28;20041;-84
2023/03/01 05:47:44;;;;;;;12.85;5.82;;;-0.40;99.90;;;;;;4156442;28;20057;-84
2023/03/01 05:49:46;;;;;;;12.35;6.25;;;-0.80;99.90;;;;;;4186437;28;20091;-83
2023/03/01 05:51:52;;;;;;;14.40;6.30;;;-1.80;99.90;;;;;;4152372;28;20060;-83
2023/03/01 05:53:54;;;;;;;15.13;6.22;;;-0.40;99.90;;;;;;4157689;28;20041;-84
2023/03/01 05:55:55;;;;;;;13.23;6.18;;;-0.90;99.90;;;;;;4146513;28;20117;-83
2023/03/01 05:57:59;;;;;;;12.77;5.72;;;-1.90;99.90;;;;;;4169846;28;20079;-84
2023/03/01 06:00:01;;;;;;;13.07;6.10;;;-0.80;99.90;;;;;;4159229;28;20053;-84
2023/03/01 06:02:02;;;;;;;12.98;6.00;;;-3.10;99.90;;;;;;4179498;28;20049;-84
2023/03/01 06:04:04;;;;;;;11.70;5.50;;;-1.60;99.90;;;;;;4135588;28;20049;-84
2023/03/01 06:06:05;;;;;;;10.98;5.63;;;-1.30;99.90;;;;;;4153075;28;20046;-84
2023/03/01 06:08:10;;;;;;;12.27;5.88;;;-1.80;99.90;;;;;;4177586;28;20076;-84
2023/03/01 06:10:14;;;;;;;13.23;6.35;;;-0.80;99.90;;;;;;4162712;28;20101;-84
2023/03/01 06:12:15;;;;;;;14.18;6.57;;;-1.20;99.90;;;;;;4143715;28;20065;-84
2023/03/01 06:14:18;;;;;;;12.82;5.95;;;-2.00;99.90;;;;;;4160523;28;20484;-84
2023/03/01 06:16:20;;;;;;;13.18;6.28;;;-1.00;99.90;;;;;;4159817;28;20100;-84
2023/03/01 06:18:22;;;;;;;13.65;6.32;;;-2.00;99.90;;;;;;4161210;28;20101;-84
2023/03/01 06:20:26;;;;;;;13.48;6.22;;;-2.00;99.90;;;;;;4168423;28;20053;-84
2023/03/01 06:22:28;;;;;;;13.02;6.45;;;-2.00;99.90;;;;;;4168211;28;20053;-84
2023/03/01 06:24:29;;;;;;;11.43;6.38;;;-2.40;99.90;;;;;;4151699;28;20053;-84
2023/03/01 06:26:30;;;;;;;13.75;6.20;;;-1.50;99.90;;;;;;4162994;28;20511;-84
2023/03/01 06:28:32;;;;;;;14.02;6.10;;;-0.80;99.90;;;;;;4152202;28;20134;-84
2023/03/01 06:30:35;;;;;;;13.70;6.50;;;-0.60;99.90;;;;;;4141196;28;20050;-84
2023/03/01 06:32:36;;;;;;;15.98;6.78;;;-0.80;99.90;;;;;;4146951;28;20117;-84
2023/03/01 06:34:36;;;;;;;15.00;6.55;;;-2.00;99.90;;;;;;4174464;28;20053;-84
2023/03/01 06:36:38;;;;;;;16.65;7.43;;;-0.40;99.90;;;;;;4181309;28;20060;-84
2023/03/01 06:38:40;;;;;;;14.82;7.07;;;-2.00;99.90;;;;;;4185874;28;20045;-84
2023/03/01 06:40:42;;;;;;;17.10;7.97;;;-1.60;99.90;;;;;;4165473;28;20093;-84
2023/03/01 06:42:50;;;;;;;18.00;7.90;;;-2.20;99.90;;;;;;4183039;28;20090;-84
2023/03/01 06:44:51;;;;;;;16.25;7.40;;;-1.20;99.90;;;;;;4168486;28;20049;-84
2023/03/01 06:46:53;;;;;;;17.20;7.68;;;-0.60;99.90;;;;;;4148312;28;20514;-84
2023/03/01 06:48:55;;;;;;;17.05;8.18;;;-1.90;99.90;;;;;;4168466;28;20425;-84
2023/03/01 06:50:59;;;;;;;16.63;7.55;;;-2.30;99.90;;;;;;4166154;28;20041;-84
2023/03/01 06:53:00;;;;;;;15.20;7.35;;;-1.70;99.90;;;;;;4189678;28;20412;-84
2023/03/01 06:55:01;;;;;;;14.90;7.47;;;-0.50;99.90;;;;;;4179554;28;20029;-82
2023/03/01 06:57:03;;;;;;;14.88;7.18;;;-2.80;99.90;;;;;;4161196;28;20057;-84
2023/03/01 06:59:04;;;;;;;17.95;7.55;;;-1.60;99.90;;;;;;4194644;28;20040;-84
2023/03/01 07:01:08;;;;;;;16.23;8.05;;;-1.30;99.90;;;;;;4196826;28;20044;-84
2023/03/01 07:03:09;;;;;;;16.92;7.82;;;-1.60;99.90;;;;;;4151171;28;20049;-84
2023/03/01 07:05:11;;;;;;;18.85;8.15;;;-1.80;99.90;;;;;;4198538;28;20076;-82
2023/03/01 07:07:17;;;;;;;16.52;8.02;;;-0.20;99.90;;;;;;4201402;28;20021;-82
2023/03/01 07:09:21;;;;;;;15.23;7.47;;;-0.70;99.90;;;;;;4180549;28;20077;-83
2023/03/01 07:11:23;;;;;;;14.45;7.00;;;-0.30;99.90;;;;;;4189229;28;20059;-83
2023/03/01 07:13:25;;;;;;;16.00;8.10;;;-0.10;99.90;;;;;;4188627;28;20548;-84
2023/03/01 07:15:28;;;;;;;16.83;7.70;;;-1.00;99.90;;;;;;4162407;28;20170;-84
2023/03/01 07:17:29;;;;;;;17.50;7.57;;;0.80;99.90;;;;;;4177784;28;20041;-84
2023/03/01 07:19:31;;;;;;;15.05;7.13;;;-0.50;99.90;;;;;;4178038;28;20052;-83
2023/03/01 07:21:32;;;;;;;16.67;7.75;;;-0.40;99.90;;;;;;4156428;28;20109;-83
2023/03/01 07:23:34;;;;;;;18.77;7.97;;;0.80;99.90;;;;;;4162514;28;20045;-82
2023/03/01 07:25:39;;;;;;;16.88;7.30;;;0.30;99.90;;;;;;4151493;28;20089;-82
2023/03/01 07:27:40;;;;;;;16.73;8.10;;;1.00;99.90;;;;;;4150182;28;20549;-83
2023/03/01 07:29:41;;;;;;;15.13;7.55;;;0.80;99.90;;;;;;4188265;28;20053;-83
2023/03/01 07:31:44;;;;;;;13.48;6.65;;;0.70;99.90;;;;;;4152142;28;20092;-82
2023/03/01 07:33:46;;;;;;;16.05;7.40;;;-0.10;99.90;;;;;;4164084;28;20081;-82
2023/03/01 07:35:48;;;;;;;18.35;7.82;;;0.90;99.90;;;;;;4140060;28;20128;-81
2023/03/01 07:37:50;;;;;;;15.93;8.50;;;0.20;99.90;;;;;;4186100;28;20050;-82
2023/03/01 07:39:51;;;;;;;15.98;7.88;;;1.60;99.90;;;;;;4146582;28;20065;-81
2023/03/01 07:41:52;;;;;;;15.02;6.65;;;0.80;99.90;;;;;;4157846;28;20041;-82
2023/03/01 07:43:54;;;;;;;13.73;6.93;;;0.60;99.90;;;;;;4162153;28;20050;-82
2023/03/01 07:46:00;;;;;;;12.52;6.25;;;1.40;99.90;;;;;;4140802;28;20038;-81
2023/03/01 07:48:01;;;;;;;13.35;7.43;;;1.00;99.90;;;;;;4185949;28;20048;-82
2023/03/01 07:50:03;;;;;;;15.73;7.65;;;0.30;99.90;;;;;;4185354;28;20040;-81
2023/03/01 07:52:04;;;;;;;13.88;6.78;;;0.40;99.90;;;;;;4162079;28;20601;-81
2023/03/01 07:54:12;;;;;;;13.40;6.88;;;2.00;99.90;;;;;;4143736;28;20050;-82
2023/03/01 07:56:17;;;;;;;11.52;6.72;;;0.70;99.90;;;;;;4176859;28;20466;-82
2023/03/01 07:58:18;;;;;;;13.10;6.65;;;2.20;99.90;;;;;;4178175;28;20378;-81
2023/03/01 08:00:21;;;;;;;15.90;7.32;;;2.20;99.90;;;;;;4185630;28;20043;-82
2023/03/01 08:02:27;;;;;;;9.90;5.75;;;2.00;99.90;;;;;;4176328;28;20403;-82
2023/03/01 08:04:29;;;;;;;12.02;6.97;;;1.90;99.90;;;;;;4162828;28;20045;-82
2023/03/01 08:06:30;;;;;;;12.77;6.65;;;2.40;99.90;;;;;;4141718;28;20395;-82
2023/03/01 08:08:32;;;;;;;13.75;7.25;;;2.30;99.90;;;;;;4181849;28;20069;-82
2023/03/01 08:10:34;;;;;;;11.15;6.25;;;2.60;99.90;;;;;;4140804;28;20061;-82
2023/03/01 08:12:35;;;;;;;14.63;7.15;;;3.30;99.90;;;;;;4150726;28;20049;-83
2023/03/01 08:14:35;;;;;;;11.75;6.80;;;4.00;99.90;;;;;;4182842;28;20064;-82
2023/03/01 08:16:37;;;;;;;14.25;7.55;;;3.50;99.90;;;;;;4170139;28;20041;-83
2023/03/01 08:18:39;;;;;;;12.93;7.50;;;3.60;99.90;;;;;;4187321;28;20481;-83
2023/03/01 08:20:39;;;;;;;14.35;7.45;;;3.90;99.90;;;;;;4183942;28;20107;-82
2023/03/01 08:22:40;;;;;;;11.57;6.38;;;4.20;99.90;;;;;;4178032;28;20041;-82
2023/03/01 08:24:41;;;;;;;13.65;8.48;;;4.40;99.90;;;;;;4187398;28;20052;-82
2023/03/01 08:26:44;;;;;;;11.88;6.60;;;5.00;99.90;;;;;;4152064;28;20037;-82
2023/03/01 08:28:46;;;;;;;12.55;7.20;;;5.10;99.90;;;;;;4165615;28;20050;-82
2023/03/01 08:30:46;;;;;;;12.38;6.20;;;5.50;99.90;;;;;;4154411;28;20433;-83
2023/03/01 08:32:47;;;;;;;11.98;6.53;;;6.00;99.90;;;;;;4146933;28;20049;-82
2023/03/01 08:34:48;;;;;;;11.02;6.30;;;6.60;99.90;;;;;;4169623;28;20045;-82
2023/03/01 08:36:51;;;;;;;11.43;7.10;;;7.30;99.90;;;;;;4165719;28;20044;-83
2023/03/01 08:38:52;;;;;;;16.27;8.07;;;7.90;99.90;;;;;;4179840;28;20124;-83
2023/03/01 08:40:53;;;;;;;13.13;7.68;;;8.50;99.80;;;;;;4168555;28;20064;-82
2023/03/01 08:42:54;;;;;;;12.55;7.18;;;9.00;99.30;;;;;;4148900;28;20120;-83
2023/03/01 08:44:56;;;;;;;17.80;9.98;;;9.50;98.80;;;;;;4168980;28;20049;-82
2023/03/01 08:46:57;;;;;;;24.42;12.48;;;10.00;98.60;;;;;;4185049;28;20033;-84
2023/03/01 08:48:58;;;;;;;24.77;14.35;;;10.50;97.80;;;;;;4169161;28;20594;-84
2023/03/01 08:51:11;;;;;;;21.40;11.57;;;10.90;97.10;;;;;;4173686;28;20052;-82
2023/03/01 08:53:12;;;;;;;19.25;10.10;;;11.20;96.30;;;;;;4169945;28;20045;-83
2023/03/01 08:55:16;;;;;;;18.63;10.05;;;11.50;96.90;;;;;;4178691;28;20460;-84
2023/03/01 08:57:16;;;;;;;20.35;10.95;;;11.90;96.20;;;;;;4168388;28;20041;-84
2023/03/01 08:59:19;;;;;;;20.35;12.57;;;12.30;95.80;;;;;;4170814;28;20072;-83
2023/03/01 09:01:20;;;;;;;18.92;11.32;;;12.70;95.60;;;;;;4166654;28;20069;-83
2023/03/01 09:03:20;;;;;;;24.25;13.40;;;13.00;94.70;;;;;;4180566;28;20049;-83
2023/03/01 09:05:21;;;;;;;25.95;13.85;;;13.60;94.30;;;;;;4175531;28;20108;-83
2023/03/01 09:07:27;;;;;;;22.60;13.32;;;;;;;;;;4132594;28;20050;-83
2023/03/01 09:09:28;;;;;;;22.63;12.55;;;13.50;93.50;;;;;;4179599;28;20066;-83
2023/03/01 09:11:29;;;;;;;23.58;12.32;;;14.10;92.50;;;;;;4133771;28;20058;-83
2023/03/01 09:13:31;;;;;;;21.30;12.40;;;14.10;91.20;;;;;;4145805;28;20077;-84
2023/03/01 09:15:33;;;;;;;24.08;13.60;;;13.90;90.20;;;;;;4134238;28;20225;-83
2023/03/01 09:17:34;;;;;;;22.27;13.25;;;13.80;90.10;;;;;;4160940;28;20589;-83
2023/03/01 09:19:34;;;;;;;19.75;11.93;;;14.00;89.20;;;;;;4134468;28;20045;-81
2023/03/01 09:21:35;;;;;;;19.60;12.27;;;14.30;88.90;;;;;;4181675;28;20029;-82
2023/03/01 09:23:40;;;;;;;23.48;14.00;;;14.70;87.70;;;;;;4145360;28;20078;-82
2023/03/01 09:25:42;;;;;;;21.92;12.25;;;15.00;86.60;;;;;;4152230;28;20441;-81
2023/03/01 09:27:42;;;;;;;23.80;13.10;;;15.20;84.00;;;;;;4176960;28;20525;-81
2023/03/01 09:29:43;;;;;;;23.85;12.95;;;15.60;83.30;;;;;;4167194;28;20049;-82
2023/03/01 09:31:44;;;;;;;24.25;12.20;;;15.90;82.30;;;;;;4179180;28;20041;-82
2023/03/01 09:33:49;;;;;;;24.90;13.32;;;16.20;80.50;;;;;;4176159;28;20045;-82
2023/03/01 09:36:00;;;;;;;21.20;12.23;;;16.40;78.00;;;;;;4170433;28;20887;-82
2023/03/01 09:38:01;;;;;;;20.35;12.85;;;16.60;76.20;;;;;;4164581;28;20061;-82
2023/03/01 09:40:04;;;;;;;21.35;12.20;;;16.70;75.90;;;;;;4156293;28;20635;-82
2023/03/01 09:42:05;;;;;;;22.17;12.70;;;16.90;74.40;;;;;;4171729;28;20544;-82
2023/03/01 09:44:44;;;;;;;19.60;12.20;;;17.10;73.90;;;;;;4174361;28;20143;-82
2023/03/01 09:46:46;;;;;;;20.70;11.98;;;17.10;70.30;;;;;;4163961;28;20056;-81
2023/03/01 09:49:06;;;;;;;22.10;12.25;;;17.30;72.00;;;;;;4168648;28;20501;-81
2023/03/01 09:51:15;;;;;;;17.25;11.18;;;17.40;69.60;;;;;;4181663;28;20052;-83
2023/03/01 09:53:18;;;;;;;;;;;17.60;69.30;;;;;;4166830;28;20124;-82
2023/03/01 09:55:37;;;;;;;20.05;11.65;;;17.80;66.40;;;;;;4167551;28;19921;-81
2023/03/01 09:57:53;;;;;;;21.27;11.67;;;18.00;68.20;;;;;;4179759;28;20071;-81
2023/03/01 10:00:26;;;;;;;19.23;11.82;;;17.80;67.60;;;;;;4170661;28;20052;-82
2023/03/01 10:02:49;;;;;;;19.13;10.15;;;17.90;66.50;;;;;;4165422;28;20413;-82
2023/03/01 10:05:13;;;;;;;19.02;11.35;;;17.90;67.20;;;;;;4161579;28;20049;-82
2023/03/01 10:07:57;;;;;;;15.80;10.60;;;17.90;67.10;;;;;;4167253;28;20512;-81
2023/03/01 10:10:00;;;;;;;19.60;11.00;;;17.80;64.70;;;;;;4135245;28;20092;-82
2023/03/01 10:12:04;;;;;;;16.20;9.75;;;17.60;67.80;;;;;;4172277;28;20053;-81
2023/03/01 10:14:29;;;;;;;17.67;10.63;;;17.30;66.80;;;;;;4182190;28;20049;-82
2023/03/01 10:16:33;;;;;;;16.92;10.45;;;17.10;64.90;;;;;;4152978;28;20057;-82
2023/03/01 10:18:36;;;;;;;17.40;9.82;;;16.90;67.60;;;;;;4176046;28;20489;-81
2023/03/01 10:20:50;;;;;;;17.25;11.50;;;16.80;67.60;;;;;;4177500;28;20846;-82
2023/03/01 10:22:52;;;;;;;18.73;11.23;;;16.60;64.30;;;;;;4180922;28;20493;-82
2023/03/01 10:24:55;;;;;;;17.88;11.38;;;16.40;67.50;;;;;;4149795;28;20100;-82
2023/03/01 10:26:58;;;;;;;16.98;10.93;;;16.40;67.70;;;;;;4179559;28;20119;-83
2023/03/01 10:29:10;;;;;;;18.38;11.23;;;16.50;67.40;;;;;;4166684;28;20409;-82
2023/03/01 10:31:18;;;;;;;18.30;11.93;;;16.50;66.10;;;;;;4174492;28;20044;-81
2023/03/01 10:33:54;;;;;;;20.05;10.80;;;16.60;66.60;;;;;;4164130;28;20049;-80
2023/03/01 10:35:55;;;;;;;22.02;10.75;;;16.60;64.30;;;;;;4158272;28;20489;-82
2023/03/01 10:38:08;;;;;;;15.52;10.63;;;16.60;67.40;;;;;;4156413;28;20125;-81
2023/03/01 10:40:10;;;;;;;18.55;10.88;;;16.60;64.80;;;;;;4164156;28;20052;-82
2023/03/01 10:42:31;;;;;;;16.25;10.20;;;16.40;65.40;;;;;;4174883;28;20389;-81